< Typhoon 197207 1972 Season Typhoon 197209 >
Typhoon 197208 (SUSAN)
General InformationTrack Information on Google Maps || Disaster Info.ResourceGoogle EarthGE AnimationAtom FeedGeoJSON
Detalied Best Track (Time Zone = UTC)
Year Month Day Hour Lat. Long. Pressure (hPa) Wind (kt) Class Image Chart
1972 7 5 18 15.0 126.0 1004 0 2 -- Chart
1972 7 6 00 16.0 125.0 1004 0 2 -- Chart
1972 7 6 06 16.0 124.0 1004 0 2 -- Chart
1972 7 6 12 16.0 123.0 1004 0 2 -- Chart
1972 7 6 18 16.0 122.1 1002 0 2 -- Chart
1972 7 7 00 16.0 121.5 1002 0 2 -- Chart
1972 7 7 06 16.7 120.3 1000 0 2 -- Chart
1972 7 7 12 17.3 119.7 1000 0 2 -- Chart
1972 7 7 18 17.7 119.3 1000 0 2 -- Chart
1972 7 8 00 18.1 118.7 998 0 9 -- Chart
1972 7 8 06 18.6 118.3 990 0 9 -- Chart
1972 7 8 12 19.0 117.8 985 0 9 -- Chart
1972 7 8 18 19.4 117.5 985 0 9 -- Chart
1972 7 9 00 19.7 117.2 985 0 9 -- Chart
1972 7 9 06 20.1 116.7 985 0 9 -- Chart
1972 7 9 12 20.4 116.4 985 0 9 -- Chart
1972 7 9 18 20.7 115.9 985 0 9 -- Chart
1972 7 10 00 20.5 115.5 985 0 9 -- Chart
1972 7 10 06 20.0 115.5 985 0 9 -- Chart
1972 7 10 12 20.2 116.1 980 0 9 -- Chart
1972 7 10 18 20.8 116.3 980 0 9 -- Chart
1972 7 11 00 21.5 116.5 980 0 9 -- Chart
1972 7 11 06 21.7 116.5 980 0 9 -- Chart
1972 7 11 12 22.2 116.5 985 0 9 -- Chart
1972 7 11 18 22.6 116.3 985 0 9 -- Chart
1972 7 12 00 22.8 115.9 985 0 9 -- Chart
1972 7 12 06 22.7 115.4 985 0 9 -- Chart
1972 7 12 12 22.5 115.3 985 0 9 -- Chart
1972 7 12 18 22.2 115.4 985 0 9 -- Chart
1972 7 13 00 21.8 115.5 985 0 9 -- Chart
1972 7 13 06 21.8 115.8 985 0 9 -- Chart
1972 7 13 12 21.9 116.2 985 0 9 -- Chart
1972 7 13 18 22.2 116.7 990 0 9 -- Chart
1972 7 14 00 22.3 117.0 990 0 9 -- Chart
1972 7 14 06 22.5 117.6 990 0 2 -- Chart
1972 7 14 12 23.0 118.5 990 0 2 -- Chart
1972 7 14 18 23.5 119.0 990 0 2 -- Chart
1972 7 15 00 25.3 118.6 994 0 2 -- Chart
1972 7 15 06 27.1 117.9 996 0 2 -- Chart
1972 7 15 12 28.0 117.6 998 0 2 -- Chart
1972 7 15 18 29.5 116.6 998 0 6 -- Chart
1972 7 16 00 30.0 116.0 1000 0 6 -- Chart
1972 7 16 06 30.4 115.6 1000 0 6 -- Chart
1972 7 16 12 30.7 114.5 1000 0 6 -- Chart
1972 7 16 18 30.9 113.2 1000 0 6 -- Chart
Japan Meteorological Agency Best Track Data | Correction Date : 1989-06-01
< Typhoon 197207 1972 Season Typhoon 197209 >

Help